createdAt,value
2017-08-21T00:02:10.163Z,71.30
2017-08-21T00:04:38.104Z,72.80
2017-08-21T00:07:05.745Z,72.50
2017-08-21T00:09:33.409Z,74.20
2017-08-21T00:12:01.087Z,75.60
2017-08-21T00:14:28.731Z,75.30
2017-08-21T00:16:56.618Z,75.00
2017-08-21T00:19:24.277Z,75.20
2017-08-21T00:21:51.936Z,74.30
2017-08-21T00:24:19.619Z,74.20
2017-08-21T00:26:48.150Z,72.20
2017-08-21T00:29:15.789Z,72.40
2017-08-21T00:31:43.455Z,70.80
2017-08-21T00:34:11.098Z,70.70
2017-08-21T00:36:38.731Z,68.80
2017-08-21T00:39:06.596Z,68.80
2017-08-21T00:41:34.229Z,66.00
2017-08-21T00:44:02.761Z,64.40
2017-08-21T00:46:30.448Z,63.10
2017-08-21T00:48:58.084Z,62.90
2017-08-21T00:51:25.719Z,63.40
2017-08-21T00:53:53.410Z,63.00
2017-08-21T00:56:21.050Z,63.80
2017-08-21T00:58:49.906Z,64.50
2017-08-21T01:01:17.638Z,64.10
2017-08-21T01:03:45.277Z,63.80
2017-08-21T01:06:12.926Z,62.10
2017-08-21T01:08:40.585Z,61.90
2017-08-21T01:11:08.216Z,61.90
2017-08-21T01:13:35.902Z,60.50
2017-08-21T01:16:03.575Z,62.00
2017-08-21T01:18:31.224Z,60.70
2017-08-21T01:20:58.888Z,62.00
2017-08-21T01:23:26.667Z,60.90
2017-08-21T01:25:54.317Z,60.10
2017-08-21T01:28:21.982Z,60.90
2017-08-21T01:30:49.676Z,63.90
2017-08-21T01:33:17.383Z,64.40
2017-08-21T01:35:45.028Z,63.90
2017-08-21T01:38:12.708Z,64.80
2017-08-21T01:40:40.331Z,64.60
2017-08-21T01:43:07.965Z,64.30
2017-08-21T01:45:35.682Z,64.40
2017-08-21T01:48:03.734Z,64.10
2017-08-21T01:50:31.358Z,65.50
2017-08-21T01:52:59.025Z,64.30
2017-08-21T01:55:26.723Z,65.60
2017-08-21T01:57:54.343Z,66.20
2017-08-21T02:00:22.041Z,65.30
2017-08-21T02:02:49.689Z,66.40
2017-08-21T02:05:17.592Z,67.30
2017-08-21T02:07:45.254Z,67.80
2017-08-21T02:10:12.914Z,68.00
2017-08-21T02:12:40.556Z,68.00
2017-08-21T02:15:08.268Z,68.40
2017-08-21T02:17:35.927Z,68.20
2017-08-21T02:20:03.557Z,67.90
2017-08-21T02:22:31.246Z,67.50
2017-08-21T02:24:58.878Z,67.40
2017-08-21T02:27:26.663Z,66.60
2017-08-21T02:29:54.331Z,67.40
2017-08-21T02:32:21.959Z,66.00
2017-08-21T02:34:49.833Z,66.90
2017-08-21T02:37:17.680Z,67.20
2017-08-21T02:39:45.325Z,67.40
2017-08-21T02:42:12.979Z,68.50
2017-08-21T02:44:40.657Z,67.00
2017-08-21T02:47:08.284Z,67.90
2017-08-21T02:49:36.045Z,66.80
2017-08-21T02:52:03.711Z,64.80
2017-08-21T02:54:31.354Z,64.40
2017-08-21T02:56:58.998Z,64.70
2017-08-21T02:59:27.236Z,64.60
2017-08-21T03:01:54.894Z,65.80
2017-08-21T03:04:22.582Z,67.90
2017-08-21T03:06:50.305Z,69.30
2017-08-21T03:09:17.988Z,67.60
2017-08-21T03:11:45.857Z,68.10
2017-08-21T03:14:13.534Z,67.40
2017-08-21T03:16:41.186Z,67.40
2017-08-21T03:19:08.825Z,66.70
2017-08-21T03:21:36.576Z,68.80
2017-08-21T03:24:04.206Z,69.50
2017-08-21T03:26:31.851Z,69.70
2017-08-21T03:28:59.531Z,68.70
2017-08-21T03:31:27.199Z,69.20
2017-08-21T03:33:54.850Z,70.70
2017-08-21T03:36:22.527Z,70.20
2017-08-21T03:38:50.184Z,70.00
2017-08-21T03:41:17.824Z,69.60
2017-08-21T03:43:45.523Z,71.70
2017-08-21T03:46:13.346Z,71.40
2017-08-21T03:48:40.993Z,72.10
2017-08-21T03:51:08.675Z,71.60
2017-08-21T03:53:36.553Z,72.20
2017-08-21T03:56:04.188Z,72.20
2017-08-21T03:58:31.855Z,72.80
2017-08-21T04:00:59.499Z,72.30
2017-08-21T04:03:27.276Z,71.80
2017-08-21T04:05:54.949Z,72.60
2017-08-21T04:08:22.579Z,73.30
2017-08-21T04:10:50.212Z,72.60
2017-08-21T04:13:17.883Z,71.80
2017-08-21T04:15:45.529Z,72.90
2017-08-21T04:18:13.255Z,72.30
2017-08-21T04:20:40.929Z,73.00
2017-08-21T04:23:08.566Z,72.80
2017-08-21T04:25:36.276Z,73.10
2017-08-21T04:28:03.944Z,72.60
2017-08-21T04:30:31.573Z,72.00
2017-08-21T04:32:59.199Z,71.50
2017-08-21T04:35:26.873Z,70.90
2017-08-21T04:37:54.505Z,71.30
2017-08-21T04:40:22.153Z,71.50
2017-08-21T04:42:49.830Z,71.60
2017-08-21T04:45:17.599Z,71.80
2017-08-21T04:47:45.229Z,68.90
2017-08-21T04:50:12.906Z,67.40
2017-08-21T04:52:40.554Z,68.70
2017-08-21T04:55:08.196Z,67.00
2017-08-21T04:57:35.928Z,69.20
2017-08-21T05:00:03.544Z,69.10
2017-08-21T05:02:31.179Z,68.00
2017-08-21T05:04:58.955Z,70.20
2017-08-21T05:07:26.683Z,69.60
2017-08-21T05:09:54.337Z,68.10
2017-08-21T05:12:22.014Z,65.90
2017-08-21T05:14:49.657Z,65.50
2017-08-21T05:17:17.602Z,66.40
2017-08-21T05:19:45.340Z,66.10
2017-08-21T05:22:13.021Z,65.50
2017-08-21T05:24:40.651Z,66.80
2017-08-21T05:27:08.325Z,66.00
2017-08-21T05:29:36.052Z,66.30
2017-08-21T05:32:03.684Z,64.50
2017-08-21T05:34:31.362Z,63.70
2017-08-21T05:36:59.005Z,66.30
2017-08-21T05:39:26.649Z,63.90
2017-08-21T05:41:54.361Z,65.00
2017-08-21T05:44:22.000Z,64.60
2017-08-21T05:46:49.775Z,65.30
2017-08-21T05:49:17.488Z,63.60
2017-08-21T05:51:45.128Z,64.00
2017-08-21T05:54:12.770Z,64.20
2017-08-21T05:56:40.428Z,64.80
2017-08-21T05:59:08.065Z,63.80
2017-08-21T06:01:35.710Z,63.00
2017-08-21T06:04:03.408Z,63.50
2017-08-21T06:06:31.050Z,64.70
2017-08-21T06:08:58.680Z,66.00
2017-08-21T06:11:26.441Z,64.00
2017-08-21T06:13:54.084Z,62.90
2017-08-21T06:16:21.740Z,60.80
2017-08-21T06:18:49.438Z,62.20
2017-08-21T06:21:17.297Z,61.00
2017-08-21T06:23:44.943Z,62.20
2017-08-21T06:26:12.607Z,62.20
2017-08-21T06:28:40.250Z,59.80
2017-08-21T06:31:07.904Z,60.70
2017-08-21T06:33:35.600Z,61.20
2017-08-21T06:36:03.349Z,61.40
2017-08-21T06:38:30.998Z,60.40
2017-08-21T06:40:58.674Z,60.90
2017-08-21T06:43:26.563Z,56.10
2017-08-21T06:45:54.205Z,57.30
2017-08-21T06:48:21.873Z,57.30
2017-08-21T06:50:49.528Z,58.10
2017-08-21T06:53:17.253Z,58.90
2017-08-21T06:55:44.930Z,58.60
2017-08-21T06:58:12.591Z,58.30
2017-08-21T07:00:40.240Z,59.00
2017-08-21T07:03:07.919Z,54.70
2017-08-21T07:05:35.792Z,54.40
2017-08-21T07:08:03.435Z,51.30
2017-08-21T07:10:31.085Z,51.30
2017-08-21T07:12:58.738Z,49.30
2017-08-21T07:15:26.531Z,50.90
2017-08-21T07:17:54.198Z,47.90
2017-08-21T07:20:21.864Z,49.80
2017-08-21T07:22:49.492Z,49.20
2017-08-21T07:25:17.166Z,50.80
2017-08-21T07:27:44.839Z,49.80
2017-08-21T07:30:12.462Z,48.50
2017-08-21T07:32:40.115Z,46.30
2017-08-21T07:35:07.862Z,42.50
2017-08-21T07:37:35.495Z,48.50
2017-08-21T07:40:03.328Z,41.70
2017-08-21T07:42:30.936Z,39.90
2017-08-21T07:44:58.580Z,38.40
2017-08-21T07:47:26.263Z,40.40
2017-08-21T07:49:53.908Z,41.50
2017-08-21T07:52:21.522Z,36.90
2017-08-21T07:54:49.183Z,39.70
2017-08-21T07:57:16.796Z,34.00
2017-08-21T07:59:44.423Z,31.10
2017-08-21T08:02:12.064Z,34.80
2017-08-21T08:04:39.683Z,34.60
2017-08-21T08:07:07.350Z,35.90
2017-08-21T08:09:35.005Z,38.10
2017-08-21T08:12:02.624Z,39.40
2017-08-21T08:14:30.239Z,39.00
2017-08-21T08:16:57.907Z,41.20
2017-08-21T08:19:25.533Z,42.60
2017-08-21T08:21:53.211Z,39.10
2017-08-21T08:24:20.860Z,34.10
2017-08-21T08:26:48.471Z,29.50
2017-08-21T08:29:16.514Z,29.80
2017-08-21T08:31:44.205Z,30.90
2017-08-21T08:34:11.812Z,30.20
2017-08-21T08:36:39.432Z,31.30
2017-08-21T08:39:07.066Z,31.70
2017-08-21T08:41:34.667Z,29.10
2017-08-21T08:44:02.285Z,26.40
2017-08-21T08:46:29.940Z,27.20
2017-08-21T08:48:57.653Z,27.00
2017-08-21T08:51:25.270Z,25.80
2017-08-21T08:53:52.922Z,25.40
2017-08-21T08:56:20.557Z,24.90
2017-08-21T08:58:48.185Z,25.70
2017-08-21T09:01:15.832Z,27.70
2017-08-21T09:03:43.440Z,32.20
2017-08-21T09:06:11.047Z,27.20
2017-08-21T09:08:38.695Z,27.30
2017-08-21T09:11:06.317Z,25.60
2017-08-21T09:13:33.940Z,25.70
2017-08-21T09:16:01.610Z,24.60
2017-08-21T09:18:29.229Z,23.90
2017-08-21T09:20:56.858Z,26.00
2017-08-21T09:23:24.518Z,25.00
2017-08-21T09:25:52.146Z,25.70
2017-08-21T09:28:19.761Z,29.00
2017-08-21T09:30:47.546Z,30.80
2017-08-21T09:33:15.179Z,32.00
2017-08-21T09:35:42.796Z,29.40
2017-08-21T09:38:10.441Z,24.50
2017-08-21T09:40:38.071Z,24.50
2017-08-21T09:43:05.694Z,23.00
2017-08-21T09:45:33.364Z,25.10
2017-08-21T09:48:40.976Z,26.20
2017-08-21T09:51:08.627Z,25.30
2017-08-21T09:53:36.274Z,24.20
2017-08-21T09:56:03.891Z,23.60
2017-08-21T09:58:31.554Z,23.40
2017-08-21T10:00:59.173Z,23.60
2017-08-21T10:03:26.790Z,20.10
2017-08-21T10:05:54.444Z,18.20
2017-08-21T10:08:22.062Z,19.40
2017-08-21T10:10:49.695Z,18.90
2017-08-21T10:13:18.244Z,20.10
2017-08-21T10:15:45.887Z,21.10
2017-08-21T10:18:13.495Z,20.70
2017-08-21T10:20:41.182Z,23.20
2017-08-21T10:23:08.820Z,19.90
2017-08-21T10:25:36.488Z,19.20
2017-08-21T10:28:04.128Z,20.40
2017-08-21T10:30:31.745Z,19.40
2017-08-21T10:32:59.367Z,19.80
2017-08-21T10:35:27.020Z,19.60
2017-08-21T10:37:54.627Z,21.80
2017-08-21T10:40:22.237Z,23.30
2017-08-21T10:42:49.892Z,25.50
2017-08-21T10:45:17.596Z,24.40
2017-08-21T10:47:45.218Z,23.90
2017-08-21T10:50:12.884Z,24.70
2017-08-21T10:52:40.500Z,28.00
2017-08-21T10:55:08.113Z,28.60
2017-08-21T10:57:35.778Z,29.50
2017-08-21T11:00:03.387Z,32.00
2017-08-21T11:02:30.997Z,29.70
2017-08-21T11:04:58.646Z,31.70
2017-08-21T11:07:26.294Z,27.50
2017-08-21T11:09:53.900Z,29.50
2017-08-21T11:12:21.565Z,29.50
2017-08-21T11:14:49.240Z,28.20
2017-08-21T11:17:16.852Z,29.40
2017-08-21T11:19:44.516Z,30.70
2017-08-21T11:22:12.133Z,30.30
2017-08-21T11:24:39.762Z,26.90
2017-08-21T11:27:07.429Z,24.30
2017-08-21T11:29:35.059Z,26.80
2017-08-21T11:32:02.678Z,27.60
2017-08-21T11:34:30.316Z,25.70
2017-08-21T11:36:57.927Z,25.70
2017-08-21T11:39:25.631Z,24.80
2017-08-21T11:41:53.365Z,23.80
2017-08-21T11:44:20.967Z,27.60
2017-08-21T11:46:48.580Z,26.50
2017-08-21T11:49:16.237Z,28.50
2017-08-21T11:51:43.853Z,32.00
2017-08-21T11:54:11.469Z,29.00
2017-08-21T11:56:39.114Z,27.10
2017-08-21T11:59:06.736Z,28.10
2017-08-21T12:01:34.371Z,27.50
2017-08-21T12:04:02.359Z,27.20
2017-08-21T12:06:29.988Z,30.30
2017-08-21T12:08:57.621Z,29.90
2017-08-21T12:11:25.305Z,29.90
2017-08-21T12:13:52.937Z,26.10
2017-08-21T12:16:20.574Z,23.70
2017-08-21T12:18:48.212Z,26.10
2017-08-21T12:21:15.852Z,28.90
2017-08-21T12:23:43.472Z,30.40
2017-08-21T12:26:11.120Z,24.50
2017-08-21T12:28:38.737Z,26.10
2017-08-21T12:31:06.556Z,24.20
2017-08-21T12:33:34.200Z,23.00
2017-08-21T12:36:01.828Z,23.40
2017-08-21T12:38:29.446Z,22.40
2017-08-21T12:40:57.107Z,23.90
2017-08-21T12:43:24.743Z,27.80
2017-08-21T12:45:52.368Z,24.10
2017-08-21T12:48:20.063Z,25.00
2017-08-21T12:50:47.817Z,25.70
2017-08-21T12:53:15.415Z,25.20
2017-08-21T12:55:43.064Z,28.30
2017-08-21T12:58:10.702Z,27.00
2017-08-21T13:00:41.721Z,30.50
2017-08-21T13:03:09.376Z,31.10
2017-08-21T13:05:36.987Z,27.10
2017-08-21T13:08:04.646Z,28.20
2017-08-21T13:10:32.308Z,31.80
2017-08-21T13:12:59.967Z,30.30
2017-08-21T13:15:27.635Z,28.30
2017-08-21T13:17:55.296Z,30.30
2017-08-21T13:20:22.942Z,29.60
2017-08-21T13:22:50.568Z,28.60
2017-08-21T13:25:19.351Z,26.50
2017-08-21T13:27:50.345Z,29.20
2017-08-21T13:30:17.981Z,29.90
2017-08-21T13:32:45.656Z,28.40
2017-08-21T13:35:13.353Z,27.80
2017-08-21T13:37:40.975Z,28.70
2017-08-21T13:40:08.621Z,32.00
2017-08-21T13:42:36.259Z,32.80
2017-08-21T13:45:03.924Z,29.60
2017-08-21T13:47:31.600Z,31.60
2017-08-21T13:49:59.261Z,28.40
2017-08-21T13:52:26.897Z,32.50
2017-08-21T13:54:54.545Z,30.80
2017-08-21T13:57:22.170Z,28.30
2017-08-21T13:59:49.792Z,26.20
2017-08-21T14:02:17.471Z,24.10
2017-08-21T14:04:45.122Z,24.30
2017-08-21T14:07:12.790Z,22.50
2017-08-21T14:09:40.460Z,23.20
2017-08-21T14:12:08.090Z,20.00
2017-08-21T14:14:35.709Z,21.00
2017-08-21T14:17:03.385Z,22.60
2017-08-21T14:19:31.000Z,21.50
2017-08-21T14:21:58.613Z,21.80
2017-08-21T14:24:26.287Z,22.20
2017-08-21T14:26:53.895Z,20.70
2017-08-21T14:29:21.546Z,23.40
2017-08-21T14:31:49.203Z,23.30
2017-08-21T14:34:16.853Z,25.50
2017-08-21T14:36:44.466Z,24.20
2017-08-21T14:39:12.128Z,25.40
2017-08-21T14:41:39.750Z,25.70
2017-08-21T14:44:07.440Z,25.20
2017-08-21T14:46:35.091Z,27.50
2017-08-21T14:49:02.700Z,26.40
2017-08-21T14:51:30.333Z,25.70
2017-08-21T14:53:57.999Z,26.00
2017-08-21T14:56:25.700Z,26.60
2017-08-21T14:58:53.382Z,26.70
2017-08-21T15:01:21.050Z,26.10
2017-08-21T15:03:48.675Z,26.40
2017-08-21T15:06:16.431Z,27.70
2017-08-21T15:08:44.095Z,27.30
2017-08-21T15:11:11.723Z,27.00
2017-08-21T15:13:39.342Z,28.40
2017-08-21T15:16:06.987Z,25.40
2017-08-21T15:18:34.599Z,26.70
2017-08-21T15:21:02.219Z,23.30
2017-08-21T15:23:29.886Z,25.50
2017-08-21T15:25:57.677Z,25.30
2017-08-21T15:28:25.306Z,22.50
2017-08-21T15:30:52.952Z,23.10
2017-08-21T15:33:20.940Z,24.30
2017-08-21T15:35:48.600Z,23.90
2017-08-21T15:38:16.285Z,22.10
2017-08-21T15:40:43.898Z,22.20
2017-08-21T15:43:11.518Z,21.40
2017-08-21T15:45:39.171Z,21.70
2017-08-21T15:48:06.788Z,24.20
2017-08-21T15:50:34.413Z,23.00
2017-08-21T15:53:02.116Z,23.00
2017-08-21T15:55:29.725Z,24.50
2017-08-21T15:57:57.354Z,25.40
2017-08-21T16:00:25.050Z,24.80
2017-08-21T16:02:52.709Z,23.30
2017-08-21T16:05:20.327Z,22.30
2017-08-21T16:07:47.981Z,23.20
2017-08-21T16:10:15.621Z,22.90
2017-08-21T16:12:43.320Z,23.10
2017-08-21T16:15:11.004Z,23.10
2017-08-21T16:17:38.630Z,22.90
2017-08-21T16:20:06.273Z,24.10
2017-08-21T16:22:33.916Z,22.30
2017-08-21T16:25:01.591Z,22.70
2017-08-21T16:27:29.192Z,24.40
2017-08-21T16:29:56.850Z,22.10
2017-08-21T16:32:24.513Z,23.40
2017-08-21T16:34:52.150Z,24.00
2017-08-21T16:37:19.831Z,24.40
2017-08-21T16:39:48.008Z,23.60
2017-08-21T16:42:15.690Z,25.10
2017-08-21T16:44:43.361Z,25.70
2017-08-21T16:47:10.990Z,26.40
2017-08-21T16:49:38.605Z,25.20
2017-08-21T16:52:06.274Z,26.70
2017-08-21T16:54:33.924Z,25.10
2017-08-21T16:57:01.540Z,27.20
2017-08-21T16:59:29.254Z,24.80
2017-08-21T17:01:56.885Z,25.70
2017-08-21T17:04:24.504Z,27.20
2017-08-21T17:06:52.159Z,25.90
2017-08-21T17:09:19.798Z,27.50
2017-08-21T17:11:47.420Z,24.00
2017-08-21T17:14:15.063Z,25.90
2017-08-21T17:16:42.671Z,24.30
2017-08-21T17:19:10.290Z,23.60
2017-08-21T17:21:38.014Z,23.60
2017-08-21T17:24:05.865Z,26.80
2017-08-21T17:26:33.505Z,27.00
2017-08-21T17:29:01.200Z,24.00
2017-08-21T17:31:28.833Z,26.10
2017-08-21T17:33:56.960Z,25.90
2017-08-21T17:36:24.615Z,27.60
2017-08-21T17:38:52.239Z,27.50
2017-08-21T17:41:19.953Z,24.10
2017-08-21T17:43:48.202Z,24.40
2017-08-21T17:46:17.963Z,26.20
2017-08-21T17:48:45.642Z,27.30
2017-08-21T17:51:13.360Z,28.10
2017-08-21T17:53:41.054Z,29.70
2017-08-21T17:56:08.772Z,31.10
2017-08-21T17:58:37.535Z,30.10
2017-08-21T18:01:05.254Z,30.70
2017-08-21T18:03:32.982Z,30.40
2017-08-21T18:06:00.669Z,31.60
2017-08-21T18:08:28.415Z,31.80
2017-08-21T18:10:56.215Z,33.90
2017-08-21T18:13:23.923Z,34.40
2017-08-21T18:15:51.565Z,33.90
2017-08-21T18:18:19.212Z,34.90
2017-08-21T18:20:46.906Z,37.30
2017-08-21T18:23:14.628Z,36.10
2017-08-21T18:25:42.257Z,36.60
2017-08-21T18:28:09.929Z,37.20
2017-08-21T18:30:37.710Z,41.10
2017-08-21T18:33:05.349Z,40.90
2017-08-21T18:35:33.062Z,41.20
2017-08-21T18:38:00.778Z,43.30
2017-08-21T18:40:29.370Z,43.30
2017-08-21T18:42:57.289Z,43.50
2017-08-21T18:45:24.920Z,43.30
2017-08-21T18:47:52.550Z,44.50
2017-08-21T18:50:21.207Z,46.10
2017-08-21T18:52:48.839Z,45.00
2017-08-21T18:55:16.675Z,47.30
2017-08-21T18:57:44.340Z,46.40
2017-08-21T19:00:11.985Z,44.00
2017-08-21T19:02:39.620Z,44.80
2017-08-21T19:05:07.332Z,46.30
2017-08-21T19:07:34.986Z,48.40
2017-08-21T19:10:02.630Z,47.00
2017-08-21T19:12:30.308Z,44.70
2017-08-21T19:14:57.956Z,46.90
2017-08-21T19:17:25.649Z,47.60
2017-08-21T19:19:53.396Z,48.00
2017-08-21T19:22:21.030Z,45.60
2017-08-21T19:24:48.700Z,46.90
2017-08-21T19:27:16.428Z,45.50
2017-08-21T19:29:51.403Z,46.90
2017-08-21T19:32:19.561Z,49.40
2017-08-21T19:34:47.206Z,47.90
2017-08-21T19:37:16.316Z,48.90
2017-08-21T19:39:44.080Z,50.00
2017-08-21T19:42:11.718Z,50.00
2017-08-21T19:44:39.356Z,50.80
2017-08-21T19:47:07.068Z,52.30
2017-08-21T19:49:34.710Z,52.30
2017-08-21T19:52:02.370Z,53.50
2017-08-21T19:54:30.054Z,55.40
2017-08-21T19:56:57.737Z,55.60
2017-08-21T19:59:25.384Z,55.50
2017-08-21T20:01:53.234Z,55.70
2017-08-21T20:04:21.280Z,55.70
2017-08-21T20:06:49.027Z,55.60
2017-08-21T20:09:16.730Z,56.10
2017-08-21T20:11:44.364Z,57.90
2017-08-21T20:14:13.330Z,57.00
2017-08-21T20:16:41.001Z,58.10
2017-08-21T20:19:08.648Z,56.60
2017-08-21T20:21:36.298Z,57.20
2017-08-21T20:24:03.960Z,57.70
2017-08-21T20:26:31.629Z,57.90
2017-08-21T20:28:59.333Z,58.50
2017-08-21T20:31:27.006Z,60.20
2017-08-21T20:33:54.652Z,59.80
2017-08-21T20:36:22.295Z,60.30
2017-08-21T20:38:49.971Z,60.10
2017-08-21T20:41:17.600Z,60.00
2017-08-21T20:43:45.295Z,57.90
2017-08-21T20:46:13.885Z,58.50
2017-08-21T20:48:41.524Z,57.70
2017-08-21T20:51:09.542Z,58.40
2017-08-21T20:53:37.328Z,57.20
2017-08-21T20:56:04.971Z,58.60
2017-08-21T20:58:32.723Z,58.40
2017-08-21T21:01:00.516Z,59.30
2017-08-21T21:03:28.489Z,59.50
2017-08-21T21:05:56.487Z,58.30
2017-08-21T21:08:25.021Z,58.20
2017-08-21T21:10:52.701Z,57.60
2017-08-21T21:13:20.382Z,55.10
2017-08-21T21:15:48.162Z,53.00
2017-08-21T21:18:15.822Z,47.60
2017-08-21T21:20:43.451Z,51.20
2017-08-21T21:23:11.121Z,46.10
2017-08-21T21:25:38.773Z,47.70
2017-08-21T21:28:06.449Z,51.20
2017-08-21T21:30:34.130Z,49.70
2017-08-21T21:33:01.763Z,49.00
2017-08-21T21:35:29.390Z,48.60
2017-08-21T21:37:57.149Z,51.00
2017-08-21T21:40:24.795Z,52.70
2017-08-21T21:42:52.432Z,52.10
2017-08-21T21:45:20.650Z,50.10
2017-08-21T21:47:48.312Z,48.20
2017-08-21T21:50:16.061Z,49.50
2017-08-21T21:52:43.735Z,48.80
2017-08-21T21:55:11.371Z,49.80
2017-08-21T21:57:39.011Z,49.20
2017-08-21T22:00:06.690Z,50.70
2017-08-21T22:02:34.333Z,51.50
2017-08-21T22:05:01.973Z,53.20
2017-08-21T22:07:29.649Z,53.60
2017-08-21T22:09:57.282Z,54.90
2017-08-21T22:12:24.927Z,55.30
2017-08-21T22:14:52.592Z,53.70
2017-08-21T22:17:20.255Z,55.70
2017-08-21T22:19:47.913Z,56.30
2017-08-21T22:22:15.665Z,57.00
2017-08-21T22:24:43.366Z,57.00
2017-08-21T22:27:11.004Z,57.30
2017-08-21T22:29:38.682Z,57.00
2017-08-21T22:32:06.565Z,57.70
2017-08-21T22:34:34.210Z,58.00
2017-08-21T22:37:01.898Z,57.70
2017-08-21T22:39:29.530Z,59.00
2017-08-21T22:41:57.234Z,61.30
2017-08-21T22:44:24.904Z,62.90
2017-08-21T22:46:52.551Z,62.00
2017-08-21T22:49:20.181Z,64.60
2017-08-21T22:51:47.837Z,65.50
2017-08-21T22:54:15.476Z,66.50
2017-08-21T22:56:43.138Z,66.80
2017-08-21T22:59:10.802Z,67.60
2017-08-21T23:01:38.438Z,69.00
2017-08-21T23:04:06.214Z,68.10
2017-08-21T23:06:33.913Z,68.80
2017-08-21T23:09:01.581Z,69.70
2017-08-21T23:11:29.208Z,69.30
2017-08-21T23:13:56.870Z,68.90
2017-08-21T23:16:24.513Z,68.40
2017-08-21T23:18:52.143Z,69.30
2017-08-21T23:21:19.832Z,70.40
2017-08-21T23:23:47.613Z,70.30
2017-08-21T23:26:15.250Z,71.80
2017-08-21T23:28:42.925Z,71.30
2017-08-21T23:31:10.559Z,71.00
2017-08-21T23:33:38.208Z,73.00
2017-08-21T23:36:05.893Z,74.30
2017-08-21T23:38:33.525Z,75.30
2017-08-21T23:41:01.172Z,75.80
2017-08-21T23:43:28.836Z,75.10
2017-08-21T23:45:56.657Z,74.70
2017-08-21T23:48:24.287Z,74.30
2017-08-21T23:50:51.957Z,74.50
2017-08-21T23:53:19.619Z,75.70
2017-08-21T23:55:47.301Z,76.60
2017-08-21T23:58:14.990Z,77.40
